Tropical Cyclones
[Index]
Main Index Home Page Stock Weather Photos Extreme Storms Discussion Storm News and Storm Chasing Reports Tropical Cyclones / Hurricanes / Typhoons Weather Data and Links Wild Fires / Bushfires Weather Observation Techniques Weather Picture Catalogue Tornado Pictures and Reports Stock Video Footage and DVDs for sale
Season 1993-1994 Tropical Cyclone GERALDA Track Map
Season 1993-1994 Summaries: [BoM-AU] [JTWC-AU] [JTWC-SIO] [JTWC-SPAC] [JTWC-SH]
<<- Previous TC | JTWC 1993-1994 Season | Next TC ->>

click for intensity scale information  Lat/long Grid: Show Hide

 Date Labels: Show Hide

Joint Typhoon Warning Centre Cyclone Data

Name: GERALDA

25 Jan 1994 12:00 UTC to 05 Feb 1994 00:00 UTC

    date/time    lat    long     hPa   cat  kts
1994-01-25 12   11.0    78.0                  20          
1994-01-25 18   11.1    76.8                  20          
1994-01-26 00   11.2    75.6                  25          
1994-01-26 06   11.3    74.4                  25          
1994-01-26 12   11.5    73.2                  30          
1994-01-26 18   11.8    72.1                  30          
1994-01-27 00   12.1    71.1                  35          
1994-01-27 06   12.4    70.1            1     40          
1994-01-27 12   12.7    69.1            1     45          
1994-01-27 18   12.9    68.1            1     50          
1994-01-28 00   13.0    67.2            2     55          
1994-01-28 06   13.1    66.4            2     60          
1994-01-28 12   13.1    65.6            2     65          
1994-01-28 18   13.1    64.9            2     70          
1994-01-29 00   13.0    64.2            3     75          
1994-01-29 06   13.0    63.5            3     80          
1994-01-29 12   13.1    62.7            3     85          
1994-01-29 18   13.2    61.9            3     90          
1994-01-30 00   13.4    61.2            4    100          
1994-01-30 06   13.6    60.5            4    115          
1994-01-30 12   13.8    59.8            5    125          
1994-01-30 18   14.0    59.0            5    135          
1994-01-31 00   14.3    58.2            5    140          
1994-01-31 06   14.5    57.3            5    145          
1994-01-31 12   14.7    56.4            5    145          
1994-01-31 18   14.9    55.5            5    140          
1994-02-01 00   15.3    54.7            5    140          
1994-02-01 06   15.7    53.8            5    135          
1994-02-01 12   16.2    52.9            5    135          
1994-02-01 18   16.8    52.1            5    130          
1994-02-02 00   17.4    51.3            5    125          
1994-02-02 06   17.9    50.4            4    115          
1994-02-02 12   18.2    49.5            4    105          
1994-02-02 18   18.4    48.6            3     75          
1994-02-03 00   18.6    47.7            1     50          
1994-02-03 06   18.9    46.8                  35          
1994-02-03 12   19.2    46.0                  30          
1994-02-03 18   19.6    45.4                  30          
1994-02-04 00   20.2    45.0                  25          
1994-02-04 06   20.7    44.7                  25          
1994-02-04 12   21.1    44.5                  20          
1994-02-04 18   21.5    44.4                  20          
1994-02-05 00   21.8    44.3                  15          
Winds are 1-min average.

Tropical cyclone tracks developed by Michael Bath using data from the Joint Typhoon Warning Centre Best Tracks and Google Maps.


[Australian Severe Weather index] [Copyright Notice] [Email Contacts] [Search This Site] [Privacy Policy]
Document: tropical_cyclone_geralda.htm Updated: 18 September 2016